WetterOnline ( https://www.wetteronline.de )

Wetter aktuell Leck

Aktuelles Wetter: Leck (17m)

6-stündlich | Neueste Meldungen
Ortszeit Temperatur Wetter
Sa, 15.06. 14:00 14.1° C leichter Regen
Sa, 15.06. 8:00 14.3° C bewölkt
Sa, 15.06. 2:00 13.3° C bedeckt
Fr, 14.06. 20:00 16.3° C leichter Regen
Fr, 14.06. 14:00 18.0° C bedeckt
Fr, 14.06. 8:00 12.0° C leichter Regen
Fr, 14.06. 2:00 11.7° C bedeckt
Do, 13.06. 20:00 13.3° C wolkig
Ortszeit Temperatur Wetter
Sa, 15.06. 15:30 15.3° C bewölkt
Sa, 15.06. 15:20 15.3° C bewölkt
Sa, 15.06. 15:10 14.3° C bedeckt
Sa, 15.06. 15:00 15.5° C wolkig
Sa, 15.06. 14:50 15.5° C wolkig
Sa, 15.06. 14:40 15.2° C bewölkt
Sa, 15.06. 14:30 14.6° C bewölkt
Sa, 15.06. 14:00 14.1° C leichter Regen
Sa, 15.06. 13:30 14.3° C leichter Regen
Sa, 15.06. 13:00 15.3° C wolkig
Sa, 15.06. 12:30 15.4° C bewölkt
Ortszeit Relative Feuchte Sichtweite
Sa, 15.06. 14:00 91% 17 km
Sa, 15.06. 8:00 88% 40 km
Sa, 15.06. 2:00 96% 26 km
Fr, 14.06. 20:00 74% 30 km
Fr, 14.06. 14:00 62% >70 km
Fr, 14.06. 8:00 84% 29 km
Fr, 14.06. 2:00 78% 35 km
Do, 13.06. 20:00 73% 45 km
Ortszeit Relative Feuchte Sichtweite
Sa, 15.06. 15:30 75% 60 km
Sa, 15.06. 15:20 75% -
Sa, 15.06. 15:10 83% -
Sa, 15.06. 15:00 78% 45 km
Sa, 15.06. 14:50 78% -
Sa, 15.06. 14:40 80% -
Sa, 15.06. 14:30 77% 50 km
Sa, 15.06. 14:00 91% 17 km
Sa, 15.06. 13:30 91% 12 km
Sa, 15.06. 13:00 84% 35 km
Sa, 15.06. 12:30 85% 29 km
Ortszeit Niederschlagsmenge Niederschlagsart
Sa, 15.06. 14:00 16 l/m2 in 6 Std. Regen
Sa, 15.06. 8:00 0.6 l/m2 in 12 Std. Regen
Sa, 15.06. 2:00 0.6 l/m2 in 6 Std. Regen
Fr, 14.06. 20:00 0.1 l/m2 in 12 Std. Regen
Fr, 14.06. 14:00 0.1 l/m2 in 6 Std. Regen
Fr, 14.06. 8:00 0.3 l/m2 in 12 Std. Regen
Fr, 14.06. 2:00 0.0 l/m2 in 6 Std. -
Do, 13.06. 20:00 1 l/m2 in 12 Std. Regen
Ortszeit Niederschlagsmenge Niederschlagsart
Sa, 15.06. 15:30 0.1 l/m2 in 30 Min Schneeregen
Sa, 15.06. 15:20 keine Meldung -
Sa, 15.06. 15:10 keine Meldung -
Sa, 15.06. 15:00 <0.05 l/m2 in 1 Std. Regen
Sa, 15.06. 14:50 keine Meldung -
Sa, 15.06. 14:40 keine Meldung -
Sa, 15.06. 14:30 <0.05 l/m2 in 30 Min Schneeregen
Sa, 15.06. 14:00 5.6 l/m2 in 1 Std. Regen
Sa, 15.06. 13:30 1.9 l/m2 in 30 Min -
Sa, 15.06. 13:00 0.0 l/m2 in 1 Std. -
Sa, 15.06. 12:30 0.0 l/m2 in 30 Min -
Ortszeit Stärke Spitze Richtung
km/h Bft. km/h Grad Sektor
Sa, 15.06. 14:00 28 4 46 230° SW
Sa, 15.06. 8:00 14 3 29 120° SO
Sa, 15.06. 2:00 11 2 25 110° O
Fr, 14.06. 20:00 9 2 31 190° S
Fr, 14.06. 14:00 19 3 35 170° S
Fr, 14.06. 8:00 9 2 20 120° SO
Fr, 14.06. 2:00 7 2 22 140° SO
Do, 13.06. 20:00 14 3 32 200° S
Ortszeit Stärke Spitze Richtung
km/h Bft. km/h Grad Sektor
Sa, 15.06. 15:30 37 5 54 230° SW
Sa, 15.06. 15:20 37 5 - 230° SW
Sa, 15.06. 15:10 30 5 - 220° SW
Sa, 15.06. 15:00 35 5 54 220° SW
Sa, 15.06. 14:50 35 5 - 220° SW
Sa, 15.06. 14:40 32 5 - 220° SW
Sa, 15.06. 14:30 33 5 48 230° SW
Sa, 15.06. 14:00 28 4 44 230° SW
Sa, 15.06. 13:30 18 3 40 200° S
Sa, 15.06. 13:00 26 4 46 220° SW
Sa, 15.06. 12:30 28 4 43 220° SW
Ortszeit Untergrenze Bedeckung Gattung
total tief tief mittel hoch
Sa, 15.06. 14:00 330 m 7/8 7/8 - - -
Sa, 15.06. 8:00 810 m 8/8 7/8 - - -
Sa, 15.06. 2:00 2700 m 8/8 8/8 - - -
Fr, 14.06. 20:00 1500 m 8/8 8/8 - - -
Fr, 14.06. 14:00 3000 m 8/8 8/8 - - -
Fr, 14.06. 8:00 1800 m 7/8 7/8 - - -
Fr, 14.06. 2:00 1500 m 8/8 8/8 - - -
Do, 13.06. 20:00 600 m 8/8 1/8 - - -
Ortszeit Bedeckungsgrad in Achtel und Wolkenuntergrenze
Sa, 15.06. 15:30 4(690m) 7(1500m) 7(1800m)
Sa, 15.06. 15:20 4(690m) 7(1500m) 7(1800m)
Sa, 15.06. 15:10 8
Sa, 15.06. 15:00 4(660m) 7(4500m) 7(5100m)
Sa, 15.06. 14:50 4(660m) 7(4500m) 7(5100m)
Sa, 15.06. 14:40 7
Sa, 15.06. 14:30 4(630m) 7(2400m) 7(3900m)
Sa, 15.06. 14:00 1(330m) 4(1500m) 7(1800m)
Sa, 15.06. 13:30 2(450m) 7(1800m) 8(2700m)
Sa, 15.06. 13:00 5(480m) 7(3000m) 7(3600m)
Sa, 15.06. 12:30 6(420m) 7(900m) 7(1500m)
Ortszeit Luftdruck NN (hPa) Tendenz (hPa in 3 Std.)
Sa, 15.06. 14:00 999 + 1,3
Sa, 15.06. 8:00 998 - 3,3
Sa, 15.06. 2:00 1004 - 2,4
Fr, 14.06. 20:00 1007 - 0,2
Fr, 14.06. 14:00 1008 - 0,4
Fr, 14.06. 8:00 1009 - 1,1
Fr, 14.06. 2:00 1012 - 1,7
Do, 13.06. 20:00 1014 - 1,0
Ortszeit Luftdruck NN (hPa) Tendenz (hPa in 3 Std.)
Sa, 15.06. 15:30 1001 + 2,6
Sa, 15.06. 15:20 1001 keine Meldung
Sa, 15.06. 15:10 1001 keine Meldung
Sa, 15.06. 15:00 1000 + 2,5
Sa, 15.06. 14:50 1000 keine Meldung
Sa, 15.06. 14:40 1000 keine Meldung
Sa, 15.06. 14:30 1000 + 2,0
Sa, 15.06. 14:00 999 + 1,3
Sa, 15.06. 13:30 999 + 0,8
Sa, 15.06. 13:00 999 + 0,6
Sa, 15.06. 12:30 998 + 0,2
Ortszeit Schneehöhe (cm)
Sa, 15.06. 14:00 0
Sa, 15.06. 8:00 0
Sa, 15.06. 2:00 0
Fr, 14.06. 20:00 0
Fr, 14.06. 14:00 0
Fr, 14.06. 8:00 0
Fr, 14.06. 2:00 0
Do, 13.06. 20:00 0
Ortszeit Schneehöhe (cm)
Sa, 15.06. 15:30 0
Sa, 15.06. 15:20 0
Sa, 15.06. 15:10 -
Sa, 15.06. 15:00 0
Sa, 15.06. 14:50 0
Sa, 15.06. 14:40 -
Sa, 15.06. 14:30 0
Sa, 15.06. 14:00 0
Sa, 15.06. 13:30 0
Sa, 15.06. 13:00 0
Sa, 15.06. 12:30 0
Link zu dieser Seite / Seite empfehlen

Das Wetter in ...